This is the latest recevied weather packets stored in our database for station/object W0VI. If no packets are shown the sender has not sent any weather packets the latest 10 day(s).
| Time | Temp. | Humidity | Pressure | Rain* | Wind** | Luminosity | Snow |
|---|---|---|---|---|---|---|---|
| 1787861177 | 27.22° C | 44% | 1018.1 hPa | 0 mm | - | 471 W/m² | - |
| 1787860876 | 26.67° C | 47% | 1018.3 hPa | 0 mm | - | 490 W/m² | - |
| 1787860570 | 26.67° C | 45% | 1018.4 hPa | 0 mm | - | 494 W/m² | - |
| 1787860266 | 26.67° C | 46% | 1018.3 hPa | 0 mm | - | 523 W/m² | - |
| 1787859961 | 26.11° C | 47% | 1018.3 hPa | 0 mm | - | 547 W/m² | - |
| 1787859656 | 26.67° C | 46% | 1018.7 hPa | 0 mm | - | 587 W/m² | - |
| 1787859355 | 26.67° C | 46% | 1018.7 hPa | 0 mm | - | 609 W/m² | - |
| 1787859052 | 26.67° C | 45% | 1018.7 hPa | 0 mm | - | 583 W/m² | - |
| 1787858747 | 26.11° C | 46% | 1018.6 hPa | 0 mm | - | 527 W/m² | - |
| 1787858444 | 26.11° C | 47% | 1018.7 hPa | 0 mm | - | 536 W/m² | - |
| 1787858142 | 26.11° C | 46% | 1018.8 hPa | 0 mm | - | 541 W/m² | - |
| 1787857838 | 26.11° C | 46% | 1018.6 hPa | 0 mm | - | 556 W/m² | - |
| 1787857534 | 25.56° C | 47% | 1018.7 hPa | 0 mm | - | 576 W/m² | - |
| 1787857233 | 26.67° C | 45% | 1018.7 hPa | 0 mm | - | 584 W/m² | - |
| 1787856932 | 26.67° C | 45% | 1018.9 hPa | 0 mm | - | 558 W/m² | - |
| 1787856627 | 26.11° C | 47% | 1018.7 hPa | 0 mm | - | 576 W/m² | - |
| 1787856322 | 25.56° C | 48% | 1019 hPa | 0 mm | - | 568 W/m² | - |
| 1787856018 | 25.56° C | 48% | 1018.9 hPa | 0 mm | - | 555 W/m² | - |
| 1787855717 | 25° C | 50% | 1019.1 hPa | 0 mm | - | 536 W/m² | - |
| 1787855412 | 25.56° C | 49% | 1019 hPa | 0 mm | - | 562 W/m² | - |
| 1787855108 | 25.56° C | 49% | 1018.9 hPa | 0 mm | - | 561 W/m² | - |
| 1787854803 | 25.56° C | 49% | 1018.9 hPa | 0 mm | - | 396 W/m² | - |
| 1787854502 | 25.56° C | 52% | 1018.9 hPa | 0 mm | - | 570 W/m² | - |
| 1787854197 | 25.56° C | 52% | 1019 hPa | 0 mm | - | 611 W/m² | - |
| 1787853892 | 26.11° C | 52% | 1019 hPa | 0 mm | - | 645 W/m² | - |
* Rain latest hour (hover to see other rain measurements)
** Current wind speed in m/s (hover to see current wind gust speed)